createdAt,value
2023-03-17T00:00:03.341Z,63.64
2023-03-17T00:01:03.312Z,63.64
2023-03-17T00:02:03.320Z,63.74
2023-03-17T00:03:03.291Z,63.95
2023-03-17T00:04:03.328Z,63.84
2023-03-17T00:05:03.255Z,63.84
2023-03-17T00:06:03.244Z,63.95
2023-03-17T00:07:03.252Z,64.04
2023-03-17T00:08:03.223Z,64.15
2023-03-17T00:09:03.204Z,64.28
2023-03-17T00:10:03.193Z,64.25
2023-03-17T00:11:03.181Z,64.39
2023-03-17T00:12:03.176Z,64.28
2023-03-17T00:13:03.182Z,64.39
2023-03-17T00:14:03.164Z,64.49
2023-03-17T00:15:03.129Z,64.49
2023-03-17T00:16:03.165Z,64.59
2023-03-17T00:17:03.103Z,64.70
2023-03-17T00:18:03.102Z,64.70
2023-03-17T00:19:03.086Z,64.70
2023-03-17T00:20:03.062Z,64.49
2023-03-17T00:21:03.045Z,64.39
2023-03-17T00:22:03.046Z,64.49
2023-03-17T00:23:03.034Z,64.49
2023-03-17T00:24:03.010Z,64.18
2023-03-17T00:25:02.991Z,64.28
2023-03-17T00:26:02.989Z,64.07
2023-03-17T00:27:02.973Z,63.76
2023-03-17T00:28:02.979Z,63.87
2023-03-17T00:29:02.950Z,63.76
2023-03-17T00:30:02.952Z,63.76
2023-03-17T00:31:02.965Z,63.66
2023-03-17T00:32:02.906Z,63.87
2023-03-17T00:33:03.020Z,63.66
2023-03-17T00:34:02.888Z,63.76
2023-03-17T00:35:02.869Z,64.07
2023-03-17T00:36:02.872Z,64.28
2023-03-17T00:37:02.842Z,64.07
2023-03-17T00:38:02.839Z,63.97
2023-03-17T00:39:02.808Z,64.07
2023-03-17T00:40:02.818Z,64.07
2023-03-17T00:41:02.790Z,64.18
2023-03-17T00:42:02.775Z,64.49
2023-03-17T00:43:02.770Z,64.39
2023-03-17T00:44:02.752Z,64.28
2023-03-17T00:45:02.733Z,64.28
2023-03-17T00:46:02.723Z,64.39
2023-03-17T00:47:02.734Z,64.70
2023-03-17T00:48:02.702Z,64.49
2023-03-17T00:49:02.696Z,64.39
2023-03-17T00:50:02.663Z,64.59
2023-03-17T00:51:02.645Z,64.80
2023-03-17T00:52:02.656Z,64.80
2023-03-17T00:53:02.633Z,64.80
2023-03-17T00:54:02.611Z,64.70
2023-03-17T00:55:02.591Z,64.90
2023-03-17T00:56:02.589Z,65.01
2023-03-17T00:57:02.574Z,65.11
2023-03-17T00:58:02.571Z,65.11
2023-03-17T00:59:02.552Z,65.11
2023-03-17T01:00:02.540Z,65.22
2023-03-17T01:01:10.087Z,65.22
2023-03-17T01:02:10.054Z,65.32
2023-03-17T01:03:11.210Z,65.45
2023-03-17T01:04:09.985Z,65.45
2023-03-17T01:05:09.975Z,65.42
2023-03-17T01:06:09.951Z,65.56
2023-03-17T01:07:10.005Z,65.56
2023-03-17T01:08:02.432Z,65.45
2023-03-17T01:09:09.921Z,65.45
2023-03-17T01:10:02.393Z,65.56
2023-03-17T01:11:02.392Z,65.56
2023-03-17T01:12:02.385Z,65.45
2023-03-17T01:13:02.382Z,65.45
2023-03-17T01:14:02.349Z,65.66
2023-03-17T01:15:02.395Z,65.77
2023-03-17T01:16:02.364Z,65.77
2023-03-17T01:17:02.318Z,65.77
2023-03-17T01:18:02.312Z,65.87
2023-03-17T01:19:02.378Z,65.87
2023-03-17T01:20:02.269Z,65.87
2023-03-17T01:21:02.272Z,65.97
2023-03-17T01:22:02.251Z,66.08
2023-03-17T01:23:02.254Z,65.97
2023-03-17T01:24:02.219Z,65.77
2023-03-17T01:25:02.212Z,65.87
2023-03-17T01:26:02.213Z,65.77
2023-03-17T01:27:02.194Z,65.87
2023-03-17T01:28:02.186Z,66.00
2023-03-17T01:29:02.163Z,65.97
2023-03-17T01:30:02.140Z,65.97
2023-03-17T01:31:02.138Z,66.11
2023-03-17T01:32:02.119Z,66.21
2023-03-17T01:33:02.185Z,66.21
2023-03-17T01:34:02.097Z,66.31
2023-03-17T01:35:02.088Z,66.41
2023-03-17T01:36:02.085Z,66.62
2023-03-17T01:37:02.057Z,66.62
2023-03-17T01:38:02.057Z,66.52
2023-03-17T01:39:02.030Z,66.52
2023-03-17T01:40:02.020Z,66.52
2023-03-17T01:41:02.013Z,66.62
2023-03-17T01:42:01.992Z,66.41
2023-03-17T01:43:01.997Z,66.41
2023-03-17T01:44:01.967Z,66.41
2023-03-17T01:45:01.967Z,66.41
2023-03-17T01:46:01.991Z,66.52
2023-03-17T01:47:01.925Z,66.52
2023-03-17T01:48:01.931Z,66.62
2023-03-17T01:49:01.909Z,66.72
2023-03-17T01:50:01.889Z,66.72
2023-03-17T01:51:01.882Z,66.72
2023-03-17T01:52:01.869Z,66.72
2023-03-17T01:53:01.865Z,66.83
2023-03-17T01:54:01.838Z,66.83
2023-03-17T01:55:01.826Z,66.83
2023-03-17T01:56:01.808Z,66.72
2023-03-17T01:57:01.809Z,66.72
2023-03-17T01:58:01.804Z,66.72
2023-03-17T01:59:01.774Z,66.83
2023-03-17T02:00:01.755Z,66.93
2023-03-17T02:01:01.837Z,66.93
2023-03-17T02:02:01.733Z,66.83
2023-03-17T02:03:01.734Z,66.83
2023-03-17T02:04:01.715Z,66.93
2023-03-17T02:05:01.705Z,66.96
2023-03-17T02:06:01.697Z,66.93
2023-03-17T02:07:01.672Z,67.07
2023-03-17T02:08:01.663Z,67.38
2023-03-17T02:09:01.682Z,67.35
2023-03-17T02:10:01.632Z,67.45
2023-03-17T02:11:01.622Z,67.48
2023-03-17T02:12:01.612Z,67.48
2023-03-17T02:13:01.607Z,67.58
2023-03-17T02:14:01.574Z,67.58
2023-03-17T02:15:01.570Z,67.69
2023-03-17T02:16:01.555Z,67.69
2023-03-17T02:17:01.601Z,67.79
2023-03-17T02:18:01.540Z,67.90
2023-03-17T02:19:01.527Z,67.90
2023-03-17T02:20:01.504Z,68.00
2023-03-17T02:21:01.493Z,68.00
2023-03-17T02:22:01.476Z,68.10
2023-03-17T02:23:01.482Z,68.10
2023-03-17T02:24:01.449Z,68.21
2023-03-17T02:25:01.440Z,68.21
2023-03-17T02:26:01.439Z,68.21
2023-03-17T02:27:01.419Z,68.21
2023-03-17T02:28:01.409Z,68.31
2023-03-17T02:29:01.389Z,68.21
2023-03-17T02:30:01.380Z,68.21
2023-03-17T02:31:01.399Z,68.41
2023-03-17T02:32:01.351Z,68.62
2023-03-17T02:33:01.396Z,68.52
2023-03-17T02:34:01.319Z,68.41
2023-03-17T02:35:01.311Z,68.52
2023-03-17T02:36:01.341Z,68.62
2023-03-17T02:37:01.293Z,68.62
2023-03-17T02:38:01.280Z,68.41
2023-03-17T02:39:01.260Z,68.52
2023-03-17T02:40:01.283Z,68.52
2023-03-17T02:41:01.248Z,68.62
2023-03-17T02:42:01.239Z,68.62
2023-03-17T02:43:01.232Z,68.83
2023-03-17T02:44:01.207Z,68.73
2023-03-17T02:45:01.188Z,68.73
2023-03-17T02:46:01.283Z,68.93
2023-03-17T02:47:01.165Z,68.93
2023-03-17T02:48:01.150Z,68.96
2023-03-17T02:49:01.140Z,69.14
2023-03-17T02:50:01.127Z,69.17
2023-03-17T02:51:01.118Z,69.07
2023-03-17T02:52:01.093Z,69.17
2023-03-17T02:53:01.236Z,69.27
2023-03-17T02:54:01.072Z,69.17
2023-03-17T02:55:01.059Z,69.17
2023-03-17T02:56:01.040Z,69.17
2023-03-17T02:57:01.050Z,69.38
2023-03-17T02:58:01.009Z,69.38
2023-03-17T02:59:01.018Z,69.38
2023-03-17T03:00:00.989Z,69.38
2023-03-17T03:01:01.049Z,69.27
2023-03-17T03:02:00.983Z,69.27
2023-03-17T03:03:00.958Z,69.27
2023-03-17T03:04:00.950Z,69.38
2023-03-17T03:05:00.928Z,69.48
2023-03-17T03:06:03.002Z,69.48
2023-03-17T03:07:00.907Z,69.38
2023-03-17T03:08:00.888Z,69.48
2023-03-17T03:09:00.891Z,69.38
2023-03-17T03:10:00.859Z,69.38
2023-03-17T03:11:00.857Z,69.48
2023-03-17T03:12:00.839Z,69.62
2023-03-17T03:13:00.829Z,69.73
2023-03-17T03:14:00.818Z,69.62
2023-03-17T03:15:00.794Z,69.62
2023-03-17T03:16:00.845Z,69.62
2023-03-17T03:17:00.774Z,69.73
2023-03-17T03:18:00.756Z,69.83
2023-03-17T03:19:00.768Z,69.93
2023-03-17T03:20:00.735Z,69.93
2023-03-17T03:21:00.727Z,69.93
2023-03-17T03:22:00.711Z,69.93
2023-03-17T03:23:00.707Z,69.93
2023-03-17T03:24:00.695Z,69.93
2023-03-17T03:25:00.680Z,69.83
2023-03-17T03:26:00.668Z,70.04
2023-03-17T03:27:00.657Z,70.25
2023-03-17T03:28:00.638Z,70.14
2023-03-17T03:29:00.642Z,70.04
2023-03-17T03:30:00.611Z,70.14
2023-03-17T03:31:00.627Z,70.14
2023-03-17T03:32:00.606Z,70.14
2023-03-17T03:33:00.607Z,70.14
2023-03-17T03:34:00.564Z,70.28
2023-03-17T03:35:00.551Z,70.38
2023-03-17T03:36:01.027Z,70.48
2023-03-17T03:37:00.537Z,70.28
2023-03-17T03:38:00.552Z,70.38
2023-03-17T03:39:01.081Z,70.28
2023-03-17T03:40:00.987Z,70.28
2023-03-17T03:41:00.900Z,70.38
2023-03-17T03:42:00.454Z,70.38
2023-03-17T03:43:02.392Z,70.38
2023-03-17T03:44:01.430Z,70.38
2023-03-17T03:45:00.410Z,70.38
2023-03-17T03:46:00.396Z,70.48
2023-03-17T03:47:00.390Z,70.48
2023-03-17T03:48:00.368Z,70.59
2023-03-17T03:49:00.377Z,70.69
2023-03-17T03:50:00.337Z,70.90
2023-03-17T03:51:00.346Z,70.90
2023-03-17T03:52:00.318Z,70.90
2023-03-17T03:53:00.332Z,71.00
2023-03-17T03:54:00.321Z,71.00
2023-03-17T03:55:00.300Z,70.90
2023-03-17T03:56:00.279Z,70.90
2023-03-17T03:57:00.254Z,70.90
2023-03-17T03:58:00.241Z,70.93
2023-03-17T03:59:00.241Z,70.93
2023-03-17T04:00:00.201Z,70.93
2023-03-17T04:01:00.203Z,71.03
2023-03-17T04:02:00.189Z,71.03
2023-03-17T04:03:00.257Z,71.03
2023-03-17T04:04:00.222Z,71.03
2023-03-17T04:05:00.268Z,71.03
2023-03-17T04:06:00.144Z,71.03
2023-03-17T04:07:00.131Z,71.03
2023-03-17T04:08:00.128Z,71.03
2023-03-17T04:09:00.109Z,71.14
2023-03-17T04:10:00.134Z,71.14
2023-03-17T04:11:00.117Z,71.24
2023-03-17T04:12:00.051Z,71.34
2023-03-17T04:13:00.091Z,71.34
2023-03-17T04:14:00.041Z,71.34
2023-03-17T04:15:00.021Z,71.34
2023-03-17T04:16:00.040Z,71.34
2023-03-17T04:17:00.007Z,71.34
2023-03-17T04:17:59.998Z,71.45
2023-03-17T04:19:00.233Z,71.45
2023-03-17T04:19:59.956Z,71.45
2023-03-17T04:20:59.939Z,71.55
2023-03-17T04:21:59.929Z,71.59
2023-03-17T04:22:59.916Z,71.69
2023-03-17T04:23:59.920Z,71.69
2023-03-17T04:24:59.897Z,71.69
2023-03-17T04:25:59.868Z,71.80
2023-03-17T04:26:59.866Z,71.80
2023-03-17T04:27:59.856Z,71.80
2023-03-17T04:28:59.855Z,71.80
2023-03-17T04:29:59.819Z,71.90
2023-03-17T04:30:59.817Z,71.90
2023-03-17T04:31:59.797Z,71.80
2023-03-17T04:32:59.829Z,71.90
2023-03-17T04:33:59.787Z,71.90
2023-03-17T04:34:59.754Z,71.90
2023-03-17T04:35:59.807Z,71.90
2023-03-17T04:36:59.736Z,72.00
2023-03-17T04:37:59.719Z,72.00
2023-03-17T04:38:59.753Z,72.00
2023-03-17T04:39:59.706Z,72.11
2023-03-17T04:40:59.680Z,72.21
2023-03-17T04:41:59.665Z,72.21
2023-03-17T04:43:00.896Z,72.24
2023-03-17T04:43:59.663Z,72.34
2023-03-17T04:44:59.631Z,72.34
2023-03-17T04:45:59.662Z,72.34
2023-03-17T04:46:59.601Z,72.45
2023-03-17T04:47:59.584Z,72.45
2023-03-17T04:48:59.595Z,72.45
2023-03-17T04:49:59.571Z,72.45
2023-03-17T04:50:59.551Z,72.45
2023-03-17T04:51:59.535Z,72.34
2023-03-17T04:52:59.524Z,72.55
2023-03-17T04:53:59.520Z,72.66
2023-03-17T04:54:59.491Z,72.66
2023-03-17T04:55:59.477Z,72.55
2023-03-17T04:56:59.481Z,72.55
2023-03-17T04:57:59.451Z,72.59
2023-03-17T04:58:59.458Z,72.59
2023-03-17T04:59:59.421Z,72.59
2023-03-17T05:00:59.565Z,72.59
2023-03-17T05:01:59.424Z,72.59
2023-03-17T05:02:59.388Z,72.59
2023-03-17T05:03:59.389Z,72.59
2023-03-17T05:04:59.367Z,72.69
2023-03-17T05:05:59.399Z,72.69
2023-03-17T05:06:59.348Z,72.80
2023-03-17T05:07:59.348Z,72.80
2023-03-17T05:08:59.329Z,72.80
2023-03-17T05:09:59.299Z,72.80
2023-03-17T05:10:59.305Z,72.80
2023-03-17T05:11:59.278Z,72.80
2023-03-17T05:12:59.261Z,72.80
2023-03-17T05:13:59.259Z,72.80
2023-03-17T05:14:59.237Z,72.90
2023-03-17T05:15:59.223Z,73.00
2023-03-17T05:16:59.201Z,73.00
2023-03-17T05:17:59.200Z,72.93
2023-03-17T05:18:59.196Z,72.93
2023-03-17T05:19:59.169Z,72.93
2023-03-17T05:20:59.165Z,72.93
2023-03-17T05:21:59.159Z,72.93
2023-03-17T05:22:59.137Z,73.03
2023-03-17T05:23:59.122Z,73.03
2023-03-17T05:24:59.126Z,73.03
2023-03-17T05:25:59.110Z,73.03
2023-03-17T05:26:59.076Z,73.03
2023-03-17T05:27:59.073Z,73.14
2023-03-17T05:28:59.043Z,73.03
2023-03-17T05:29:59.050Z,73.14
2023-03-17T05:30:59.110Z,73.25
2023-03-17T05:31:59.016Z,73.25
2023-03-17T05:32:59.017Z,73.25
2023-03-17T05:33:58.991Z,73.25
2023-03-17T05:34:58.985Z,73.25
2023-03-17T05:35:58.996Z,73.25
2023-03-17T05:36:58.940Z,73.25
2023-03-17T05:37:58.934Z,73.25
2023-03-17T05:38:58.911Z,73.38
2023-03-17T05:39:58.926Z,73.38
2023-03-17T05:40:58.890Z,73.38
2023-03-17T05:41:58.881Z,73.38
2023-03-17T05:42:58.867Z,73.38
2023-03-17T05:43:58.859Z,73.38
2023-03-17T05:44:58.854Z,73.38
2023-03-17T05:45:58.854Z,73.49
2023-03-17T05:46:58.812Z,73.38
2023-03-17T05:47:58.800Z,73.49
2023-03-17T05:48:58.780Z,73.49
2023-03-17T05:49:58.788Z,73.49
2023-03-17T05:50:58.759Z,73.49
2023-03-17T05:51:58.748Z,73.49
2023-03-17T05:52:58.735Z,73.49
2023-03-17T05:53:58.722Z,73.59
2023-03-17T05:54:58.722Z,73.59
2023-03-17T05:55:58.703Z,73.59
2023-03-17T05:56:58.678Z,73.49
2023-03-17T05:57:58.715Z,73.49
2023-03-17T05:58:58.655Z,73.69
2023-03-17T05:59:58.662Z,73.80
2023-03-17T06:00:58.628Z,73.80
2023-03-17T06:01:58.696Z,73.69
2023-03-17T06:02:58.614Z,73.80
2023-03-17T06:03:58.597Z,73.80
2023-03-17T06:04:58.594Z,73.80
2023-03-17T06:05:58.591Z,74.01
2023-03-17T06:06:58.552Z,73.90
2023-03-17T06:07:58.536Z,74.01
2023-03-17T06:08:58.540Z,74.01
2023-03-17T06:09:58.530Z,74.08
2023-03-17T06:10:58.499Z,74.08
2023-03-17T06:11:58.497Z,73.97
2023-03-17T06:12:58.479Z,73.97
2023-03-17T06:13:58.473Z,73.83
2023-03-17T06:14:58.455Z,73.73
2023-03-17T06:15:58.456Z,73.73
2023-03-17T06:16:58.435Z,73.60
2023-03-17T06:17:58.413Z,73.70
2023-03-17T06:18:58.396Z,73.70
2023-03-17T06:19:58.397Z,73.70
2023-03-17T06:20:58.368Z,73.66
2023-03-17T06:21:58.354Z,73.66
2023-03-17T06:23:04.431Z,73.56
2023-03-17T06:23:59.334Z,73.43
2023-03-17T06:24:58.325Z,73.32
2023-03-17T06:25:58.304Z,73.22
2023-03-17T06:26:58.296Z,73.08
2023-03-17T06:27:58.302Z,73.08
2023-03-17T06:28:58.264Z,72.97
2023-03-17T06:29:58.292Z,72.97
2023-03-17T06:30:58.322Z,72.97
2023-03-17T06:32:09.282Z,73.08
2023-03-17T06:32:59.288Z,73.18
2023-03-17T06:33:58.212Z,73.08
2023-03-17T06:34:58.200Z,73.18
2023-03-17T06:35:58.200Z,73.15
2023-03-17T06:36:58.176Z,73.15
2023-03-17T06:37:58.187Z,73.25
2023-03-17T06:38:58.130Z,73.15
2023-03-17T06:39:58.139Z,73.15
2023-03-17T06:40:58.129Z,73.15
2023-03-17T06:41:58.111Z,73.25
2023-03-17T06:42:58.086Z,73.25
2023-03-17T06:43:58.076Z,73.25
2023-03-17T06:44:58.069Z,73.32
2023-03-17T06:45:58.050Z,73.53
2023-03-17T06:46:58.043Z,73.63
2023-03-17T06:47:58.046Z,73.74
2023-03-17T06:48:58.008Z,73.84
2023-03-17T06:49:58.015Z,73.91
2023-03-17T06:50:57.986Z,73.91
2023-03-17T06:51:57.969Z,74.01
2023-03-17T06:52:57.949Z,74.01
2023-03-17T06:53:57.946Z,74.11
2023-03-17T06:54:57.945Z,74.29
2023-03-17T06:55:57.919Z,74.40
2023-03-17T06:56:57.897Z,74.50
2023-03-17T06:57:57.895Z,74.57
2023-03-17T06:58:57.884Z,74.67
2023-03-17T06:59:57.878Z,74.74
2023-03-17T07:00:57.853Z,74.95
2023-03-17T07:01:57.881Z,75.12
2023-03-17T07:02:57.897Z,75.12
2023-03-17T07:03:57.827Z,75.09
2023-03-17T07:04:57.865Z,75.05
2023-03-17T07:05:57.786Z,74.95
2023-03-17T07:06:57.773Z,74.81
2023-03-17T07:07:57.765Z,74.57
2023-03-17T07:08:57.745Z,74.36
2023-03-17T07:09:57.764Z,74.22
2023-03-17T07:10:57.741Z,74.22
2023-03-17T07:11:57.714Z,73.98
2023-03-17T07:12:57.700Z,73.88
2023-03-17T07:13:57.691Z,73.64
2023-03-17T07:14:57.695Z,73.54
2023-03-17T07:16:00.439Z,73.40
2023-03-17T07:16:57.649Z,73.40
2023-03-17T07:17:57.635Z,73.36
2023-03-17T07:18:57.651Z,73.13
2023-03-17T07:19:57.637Z,73.02
2023-03-17T07:20:57.599Z,72.78
2023-03-17T07:21:57.579Z,72.16
2023-03-17T07:22:57.581Z,72.37
2023-03-17T07:23:57.587Z,72.03
2023-03-17T07:24:57.569Z,71.51
2023-03-17T07:25:57.522Z,71.79
2023-03-17T07:26:57.510Z,71.89
2023-03-17T07:27:57.501Z,71.75
2023-03-17T07:28:57.491Z,71.55
2023-03-17T07:29:57.677Z,71.55
2023-03-17T07:30:57.462Z,71.51
2023-03-17T07:31:57.462Z,71.62
2023-03-17T07:32:57.486Z,71.59
2023-03-17T07:33:57.461Z,71.59
2023-03-17T07:34:57.453Z,71.55
2023-03-17T07:35:57.454Z,71.55
2023-03-17T07:36:57.408Z,71.42
2023-03-17T07:37:57.388Z,71.52
2023-03-17T07:38:57.364Z,71.39
2023-03-17T07:39:57.395Z,71.08
2023-03-17T07:40:57.357Z,70.87
2023-03-17T07:41:57.335Z,70.84
2023-03-17T07:42:57.302Z,70.84
2023-03-17T07:43:57.323Z,70.84
2023-03-17T07:44:57.293Z,70.40
2023-03-17T07:45:57.277Z,69.57
2023-03-17T07:46:57.261Z,69.65
2023-03-17T07:47:57.237Z,69.34
2023-03-17T07:48:57.229Z,69.75
2023-03-17T07:49:57.221Z,69.92
2023-03-17T07:50:57.198Z,69.92
2023-03-17T07:51:57.180Z,68.08
2023-03-17T07:52:57.170Z,68.38
2023-03-17T07:53:57.156Z,68.87
2023-03-17T07:54:57.146Z,68.55
2023-03-17T07:55:57.126Z,68.32
2023-03-17T07:56:57.110Z,67.40
2023-03-17T07:57:57.145Z,68.22
2023-03-17T07:58:57.080Z,68.60
2023-03-17T07:59:57.087Z,68.90
2023-03-17T08:00:57.052Z,68.87
2023-03-17T08:01:57.069Z,68.94
2023-03-17T08:03:09.439Z,68.94
2023-03-17T08:03:58.132Z,68.84
2023-03-17T08:04:57.034Z,68.50
2023-03-17T08:05:56.994Z,67.58
2023-03-17T08:06:56.988Z,67.89
2023-03-17T08:07:56.967Z,67.99
2023-03-17T08:08:56.988Z,68.06
2023-03-17T08:09:56.947Z,68.19
2023-03-17T08:10:56.914Z,68.30
2023-03-17T08:11:56.929Z,68.09
2023-03-17T08:12:56.915Z,67.68
2023-03-17T08:13:56.881Z,67.89
2023-03-17T08:14:56.875Z,68.06
2023-03-17T08:15:56.868Z,68.16
2023-03-17T08:16:56.972Z,67.14
2023-03-17T08:17:56.835Z,67.45
2023-03-17T08:18:56.847Z,67.62
2023-03-17T08:19:56.822Z,67.59
2023-03-17T08:20:56.802Z,67.49
2023-03-17T08:21:56.801Z,64.84
2023-03-17T08:22:56.792Z,64.70
2023-03-17T08:23:56.776Z,65.42
2023-03-17T08:24:56.760Z,65.62
2023-03-17T08:25:56.764Z,64.37
2023-03-17T08:26:57.636Z,65.08
2023-03-17T08:27:56.697Z,64.14
2023-03-17T08:28:56.687Z,64.84
2023-03-17T08:29:56.675Z,65.22
2023-03-17T08:30:56.686Z,65.22
2023-03-17T08:31:56.902Z,65.09
2023-03-17T08:32:56.665Z,64.99
2023-03-17T08:33:56.635Z,65.06
2023-03-17T08:34:56.599Z,64.96
2023-03-17T08:35:56.636Z,64.93
2023-03-17T08:36:56.590Z,64.73
2023-03-17T08:37:56.570Z,64.39
2023-03-17T08:38:56.548Z,64.09
2023-03-17T08:39:56.544Z,63.95
2023-03-17T08:40:56.546Z,63.82
2023-03-17T08:41:56.515Z,61.90
2023-03-17T08:42:56.493Z,62.48
2023-03-17T08:43:56.473Z,62.27
2023-03-17T08:45:03.982Z,62.34
2023-03-17T08:45:56.508Z,62.45
2023-03-17T08:46:56.438Z,59.50
2023-03-17T08:47:56.435Z,60.72
2023-03-17T08:48:56.504Z,61.33
2023-03-17T08:49:56.407Z,61.30
2023-03-17T08:50:56.407Z,61.40
2023-03-17T08:51:56.393Z,61.37
2023-03-17T08:52:56.366Z,60.74
2023-03-17T08:53:56.358Z,60.74
2023-03-17T08:54:56.335Z,60.41
2023-03-17T08:55:56.344Z,60.61
2023-03-17T08:56:56.352Z,60.68
2023-03-17T08:57:56.305Z,58.43
2023-03-17T08:58:56.286Z,59.48
2023-03-17T08:59:56.277Z,59.86
2023-03-17T09:00:56.267Z,59.73
2023-03-17T09:01:56.343Z,59.30
2023-03-17T09:02:56.342Z,58.97
2023-03-17T09:03:56.224Z,58.54
2023-03-17T09:04:56.206Z,58.11
2023-03-17T09:05:56.208Z,57.68
2023-03-17T09:07:03.336Z,57.04
2023-03-17T09:07:57.186Z,57.15
2023-03-17T09:08:56.149Z,56.95
2023-03-17T09:09:56.179Z,56.31
2023-03-17T09:10:56.134Z,56.11
2023-03-17T09:11:56.118Z,55.81
2023-03-17T09:12:56.096Z,55.79
2023-03-17T09:13:56.104Z,55.79
2023-03-17T09:14:56.072Z,55.46
2023-03-17T09:15:56.153Z,55.76
2023-03-17T09:16:56.047Z,55.63
2023-03-17T09:17:56.035Z,54.83
2023-03-17T09:18:56.019Z,54.02
2023-03-17T09:19:56.006Z,54.13
2023-03-17T09:20:56.006Z,54.20
2023-03-17T09:21:55.984Z,52.69
2023-03-17T09:22:55.964Z,52.77
2023-03-17T09:23:55.962Z,53.37
2023-03-17T09:24:55.945Z,53.57
2023-03-17T09:25:55.984Z,53.55
2023-03-17T09:26:55.925Z,53.82
2023-03-17T09:27:55.894Z,52.29
2023-03-17T09:28:55.884Z,52.49
2023-03-17T09:29:55.865Z,52.47
2023-03-17T09:30:55.907Z,52.47
2023-03-17T09:31:55.876Z,52.04
2023-03-17T09:32:55.875Z,51.54
2023-03-17T09:33:55.811Z,51.54
2023-03-17T09:34:55.812Z,52.14
2023-03-17T09:35:55.856Z,51.84
2023-03-17T09:36:55.825Z,50.74
2023-03-17T09:37:55.760Z,51.32
2023-03-17T09:38:55.743Z,50.82
2023-03-17T09:39:55.772Z,51.32
2023-03-17T09:40:55.730Z,50.74
2023-03-17T09:41:55.702Z,49.54
2023-03-17T09:42:55.702Z,50.64
2023-03-17T09:43:55.688Z,50.74
2023-03-17T09:44:55.723Z,50.62
2023-03-17T09:45:55.662Z,50.82
2023-03-17T09:46:55.672Z,51.22
2023-03-17T09:47:55.622Z,50.82
2023-03-17T09:48:55.622Z,51.02
2023-03-17T09:49:55.620Z,50.52
2023-03-17T09:50:55.625Z,50.79
2023-03-17T09:51:55.573Z,50.29
2023-03-17T09:52:55.570Z,50.49
2023-03-17T09:53:55.543Z,50.39
2023-03-17T09:54:55.541Z,49.97
2023-03-17T09:55:55.548Z,49.57
2023-03-17T09:56:55.502Z,49.57
2023-03-17T09:57:55.492Z,46.37
2023-03-17T09:58:55.482Z,47.87
2023-03-17T09:59:55.462Z,48.47
2023-03-17T10:00:55.491Z,48.37
2023-03-17T10:01:55.542Z,48.65
2023-03-17T10:02:55.423Z,48.75
2023-03-17T10:03:55.410Z,48.65
2023-03-17T10:04:55.442Z,48.94
2023-03-17T10:05:55.392Z,49.12
2023-03-17T10:06:55.375Z,48.52
2023-03-17T10:07:55.361Z,47.83
2023-03-17T10:08:55.354Z,47.72
2023-03-17T10:09:55.342Z,47.72
2023-03-17T10:10:55.349Z,48.63
2023-03-17T10:11:55.302Z,48.52
2023-03-17T10:12:55.303Z,48.52
2023-03-17T10:13:55.282Z,48.02
2023-03-17T10:14:55.298Z,47.83
2023-03-17T10:15:55.286Z,48.52
2023-03-17T10:16:55.242Z,48.43
2023-03-17T10:17:55.221Z,48.52
2023-03-17T10:18:55.214Z,48.43
2023-03-17T10:19:55.195Z,48.63
2023-03-17T10:20:55.206Z,48.40
2023-03-17T10:21:55.177Z,48.60
2023-03-17T10:22:55.163Z,48.30
2023-03-17T10:23:55.142Z,48.10
2023-03-17T10:24:55.141Z,48.60
2023-03-17T10:25:55.126Z,48.60
2023-03-17T10:26:55.113Z,48.10
2023-03-17T10:27:55.094Z,48.50
2023-03-17T10:28:55.087Z,48.68
2023-03-17T10:29:55.063Z,48.88
2023-03-17T10:30:55.070Z,48.78
2023-03-17T10:31:57.778Z,48.58
2023-03-17T10:32:55.063Z,48.68
2023-03-17T10:33:55.004Z,48.90
2023-03-17T10:34:55.003Z,49.20
2023-03-17T10:35:55.025Z,48.10
2023-03-17T10:36:54.974Z,48.20
2023-03-17T10:38:08.046Z,48.50
2023-03-17T10:38:55.952Z,48.58
2023-03-17T10:39:54.931Z,48.68
2023-03-17T10:40:54.932Z,48.58
2023-03-17T10:41:54.902Z,49.18
2023-03-17T10:42:54.894Z,49.18
2023-03-17T10:43:54.872Z,48.48
2023-03-17T10:44:54.872Z,48.48
2023-03-17T10:45:54.862Z,48.18
2023-03-17T10:46:54.911Z,48.68
2023-03-17T10:47:54.822Z,48.05
2023-03-17T10:48:54.818Z,48.35
2023-03-17T10:49:54.802Z,48.35
2023-03-17T10:50:54.801Z,47.75
2023-03-17T10:51:54.772Z,47.56
2023-03-17T10:52:54.779Z,47.96
2023-03-17T10:53:54.743Z,48.35
2023-03-17T10:54:54.739Z,47.66
2023-03-17T10:55:54.739Z,48.38
2023-03-17T10:57:02.215Z,48.38
2023-03-17T10:58:02.209Z,48.58
2023-03-17T10:59:02.184Z,48.78
2023-03-17T11:00:02.176Z,48.68
2023-03-17T11:01:03.432Z,48.78
2023-03-17T11:02:02.165Z,46.70
2023-03-17T11:03:02.140Z,48.20
2023-03-17T11:03:54.669Z,48.70
2023-03-17T11:04:54.602Z,48.90
2023-03-17T11:05:54.592Z,48.80
2023-03-17T11:06:54.573Z,48.90
2023-03-17T11:07:54.563Z,49.20
2023-03-17T11:08:54.554Z,49.50
2023-03-17T11:09:54.539Z,50.00
2023-03-17T11:10:54.534Z,47.71
2023-03-17T11:11:54.504Z,48.93
2023-03-17T11:12:54.508Z,48.22
2023-03-17T11:13:54.473Z,49.12
2023-03-17T11:14:54.474Z,49.52
2023-03-17T11:15:54.475Z,47.92
2023-03-17T11:16:54.446Z,47.13
2023-03-17T11:17:54.424Z,48.22
2023-03-17T11:18:54.427Z,48.32
2023-03-17T11:19:54.411Z,48.43
2023-03-17T11:20:54.434Z,49.22
2023-03-17T11:21:54.380Z,49.22
2023-03-17T11:22:54.363Z,50.02
2023-03-17T11:23:54.347Z,50.32
2023-03-17T11:24:54.335Z,50.60
2023-03-17T11:25:54.317Z,50.99
2023-03-17T11:26:54.327Z,50.99
2023-03-17T11:27:54.286Z,50.87
2023-03-17T11:28:54.286Z,50.67
2023-03-17T11:29:54.266Z,47.98
2023-03-17T11:30:54.257Z,46.28
2023-03-17T11:31:54.275Z,45.71
2023-03-17T11:32:54.244Z,45.81
2023-03-17T11:33:54.206Z,45.23
2023-03-17T11:34:54.205Z,45.33
2023-03-17T11:35:54.220Z,44.65
2023-03-17T11:36:56.482Z,45.65
2023-03-17T11:37:54.155Z,45.15
2023-03-17T11:38:54.162Z,44.57
2023-03-17T11:39:54.135Z,44.17
2023-03-17T11:40:54.126Z,44.49
2023-03-17T11:41:54.123Z,44.39
2023-03-17T11:42:55.356Z,44.20
2023-03-17T11:43:54.085Z,44.70
2023-03-17T11:44:54.073Z,45.12
2023-03-17T11:45:54.085Z,44.62
2023-03-17T11:46:54.056Z,44.92
2023-03-17T11:47:54.027Z,44.32
2023-03-17T11:48:54.017Z,44.92
2023-03-17T11:49:54.006Z,44.82
2023-03-17T11:50:54.006Z,45.12
2023-03-17T11:51:53.996Z,45.42
2023-03-17T11:52:53.969Z,44.62
2023-03-17T11:53:53.946Z,45.31
2023-03-17T11:54:55.967Z,45.81
2023-03-17T11:55:53.917Z,45.14
2023-03-17T11:56:53.926Z,45.12
2023-03-17T11:57:53.899Z,45.34
2023-03-17T11:58:53.885Z,45.12
2023-03-17T11:59:53.874Z,45.12
2023-03-17T12:00:53.857Z,45.31
2023-03-17T12:01:53.853Z,44.13
2023-03-17T12:02:53.832Z,44.43
2023-03-17T12:03:53.906Z,43.24
2023-03-17T12:04:53.802Z,41.53
2023-03-17T12:05:53.781Z,43.04
2023-03-17T12:06:55.409Z,44.24
2023-03-17T12:07:53.759Z,43.93
2023-03-17T12:08:53.744Z,41.24
2023-03-17T12:09:53.730Z,40.53
2023-03-17T12:10:53.724Z,41.83
2023-03-17T12:11:53.713Z,42.83
2023-03-17T12:12:53.700Z,42.93
2023-03-17T12:13:53.674Z,43.04
2023-03-17T12:14:53.671Z,43.54
2023-03-17T12:15:53.669Z,42.93
2023-03-17T12:16:53.666Z,44.04
2023-03-17T12:17:53.640Z,43.63
2023-03-17T12:18:53.611Z,44.04
2023-03-17T12:19:53.601Z,42.82
2023-03-17T12:20:53.662Z,43.32
2023-03-17T12:21:53.583Z,43.71
2023-03-17T12:22:55.169Z,43.12
2023-03-17T12:23:53.545Z,42.82
2023-03-17T12:24:53.536Z,43.51
2023-03-17T12:25:53.511Z,42.91
2023-03-17T12:26:53.521Z,43.21
2023-03-17T12:27:53.502Z,43.51
2023-03-17T12:28:54.221Z,43.01
2023-03-17T12:29:53.464Z,43.59
2023-03-17T12:30:53.481Z,43.70
2023-03-17T12:31:53.455Z,42.99
2023-03-17T12:32:53.478Z,43.09
2023-03-17T12:33:53.420Z,43.70
2023-03-17T12:34:55.018Z,41.60
2023-03-17T12:35:53.479Z,41.99
2023-03-17T12:36:53.393Z,41.99
2023-03-17T12:37:53.354Z,42.40
2023-03-17T12:38:53.350Z,42.99
2023-03-17T12:39:53.332Z,42.99
2023-03-17T12:40:53.322Z,43.70
2023-03-17T12:41:53.324Z,42.99
2023-03-17T12:42:53.301Z,42.90
2023-03-17T12:43:53.282Z,41.69
2023-03-17T12:44:53.273Z,41.30
2023-03-17T12:45:54.230Z,43.29
2023-03-17T12:46:53.252Z,42.99
2023-03-17T12:47:53.226Z,42.10
2023-03-17T12:48:53.222Z,42.69
2023-03-17T12:49:53.193Z,42.99
2023-03-17T12:50:53.185Z,43.29
2023-03-17T12:51:53.423Z,42.40